createdAt,value
2018-09-28T00:01:38.914Z,97703.76
2018-09-28T00:06:33.389Z,97708.71
2018-09-28T00:11:27.876Z,97701.23
2018-09-28T00:16:22.362Z,97692.55
2018-09-28T00:21:16.837Z,97689.91
2018-09-28T00:26:11.286Z,97680.73
2018-09-28T00:31:05.828Z,97678.81
2018-09-28T00:36:00.442Z,97676.08
2018-09-28T00:40:54.832Z,97666.08
2018-09-28T00:45:49.311Z,97663.05
2018-09-28T00:50:43.775Z,97661.33
2018-09-28T00:55:38.221Z,97653.57
2018-09-28T01:00:32.721Z,97648.20
2018-09-28T01:05:27.288Z,97650.71
2018-09-28T01:10:21.756Z,97642.64
2018-09-28T01:15:16.215Z,97640.41
2018-09-28T01:20:10.663Z,97633.13
2018-09-28T01:25:05.253Z,97629.48
2018-09-28T01:29:59.835Z,97634.72
2018-09-28T01:34:54.357Z,97620.31
2018-09-28T01:39:48.849Z,97622.58
2018-09-28T01:44:43.276Z,97623.58
2018-09-28T01:49:37.748Z,97617.06
2018-09-28T01:54:32.194Z,97614.87
2018-09-28T01:59:26.700Z,97611.42
2018-09-28T02:04:21.228Z,97602.53
2018-09-28T02:09:15.827Z,97600.00
2018-09-28T02:14:10.276Z,97598.25
2018-09-28T02:19:04.769Z,97585.12
2018-09-28T02:23:59.240Z,97586.22
2018-09-28T02:28:53.702Z,97582.19
2018-09-28T02:33:48.161Z,97576.44
2018-09-28T02:38:42.721Z,97577.44
2018-09-28T02:43:37.227Z,97574.70
2018-09-28T02:48:31.785Z,97567.78
2018-09-28T02:53:26.253Z,97557.48
2018-09-28T02:58:20.774Z,97557.58
2018-09-28T03:03:15.272Z,97547.73
2018-09-28T03:08:10.753Z,97548.63
2018-09-28T03:13:05.697Z,97542.97
2018-09-28T03:18:00.365Z,97552.31
2018-09-28T03:22:55.029Z,97546.14
2018-09-28T03:27:49.506Z,97550.16
2018-09-28T03:32:44.024Z,97542.11
2018-09-28T03:37:38.517Z,97542.00
2018-09-28T03:42:33.052Z,97542.52
2018-09-28T03:47:27.640Z,97537.08
2018-09-28T03:52:22.113Z,97534.94
2018-09-28T03:57:17.168Z,97543.41
2018-09-28T04:02:11.629Z,97544.72
2018-09-28T04:07:06.067Z,97538.48
2018-09-28T04:12:00.548Z,97536.45
2018-09-28T04:16:54.973Z,97544.20
2018-09-28T04:21:54.628Z,97544.51
2018-09-28T04:26:49.028Z,97548.74
2018-09-28T04:31:43.456Z,97543.38
2018-09-28T04:36:37.904Z,97539.07
2018-09-28T04:41:32.395Z,97531.59
2018-09-28T04:46:26.884Z,97534.93
2018-09-28T04:51:21.391Z,97530.11
2018-09-28T04:56:15.899Z,97535.03
2018-09-28T05:01:10.481Z,97540.89
2018-09-28T05:06:04.996Z,97544.20
2018-09-28T05:10:59.513Z,97542.58
2018-09-28T05:15:54.016Z,97536.03
2018-09-28T05:20:48.565Z,97534.11
2018-09-28T05:25:42.987Z,97531.80
2018-09-28T05:30:44.969Z,97537.55
2018-09-28T05:35:32.189Z,97541.84
2018-09-28T05:40:26.723Z,97541.83
2018-09-28T05:45:21.325Z,97549.95
2018-09-28T05:50:15.848Z,97552.42
2018-09-28T05:55:10.526Z,97551.20
2018-09-28T06:00:11.240Z,97556.06
2018-09-28T06:05:10.881Z,97548.01
2018-09-28T06:10:05.832Z,97545.27
2018-09-28T06:15:00.777Z,97538.48
2018-09-28T06:19:56.209Z,97534.99
2018-09-28T06:24:51.374Z,97547.45
2018-09-28T06:29:52.636Z,97545.91
2018-09-28T06:34:47.358Z,97549.34
2018-09-28T06:39:54.203Z,97544.28
2018-09-28T06:44:49.170Z,97542.48
2018-09-28T06:49:43.685Z,97561.27
2018-09-28T06:54:38.955Z,97563.92
2018-09-28T06:59:34.104Z,97561.55
2018-09-28T07:04:29.296Z,97562.05
2018-09-28T07:09:23.868Z,97564.50
2018-09-28T07:14:18.371Z,97567.61
2018-09-28T07:19:13.154Z,97560.89
2018-09-28T07:24:07.799Z,97560.42
2018-09-28T07:29:03.609Z,97563.16
2018-09-28T07:33:58.578Z,97558.42
2018-09-28T07:39:15.994Z,97562.77
2018-09-28T07:44:29.754Z,97559.67
2018-09-28T07:49:24.697Z,97565.03
2018-09-28T07:54:19.484Z,97556.30
2018-09-28T07:59:15.447Z,97565.60
2018-09-28T08:04:09.937Z,97565.13
2018-09-28T08:09:06.701Z,97566.81
2018-09-28T08:14:01.853Z,97565.50
2018-09-28T08:18:57.804Z,97562.41
2018-09-28T08:23:53.034Z,97552.61
2018-09-28T08:28:47.596Z,97547.13
2018-09-28T08:33:42.325Z,97535.08
2018-09-28T08:38:38.470Z,97536.80
2018-09-28T08:43:33.684Z,97531.92
2018-09-28T08:48:28.646Z,97525.88
2018-09-28T08:53:25.367Z,97526.13
2018-09-28T08:58:20.457Z,97520.62
2018-09-28T09:03:17.608Z,97520.69
2018-09-28T09:08:12.327Z,97513.52
2018-09-28T09:13:07.892Z,97507.25
2018-09-28T09:18:03.046Z,97509.98
2018-09-28T09:22:58.820Z,97507.59
2018-09-28T09:27:53.785Z,97506.73
2018-09-28T09:32:48.318Z,97504.64
2018-09-28T09:37:43.052Z,97501.09
2018-09-28T09:42:38.687Z,97491.84
2018-09-28T09:47:33.295Z,97486.59
2018-09-28T09:52:28.067Z,97472.03
2018-09-28T09:57:23.140Z,97468.52
2018-09-28T10:02:23.174Z,97463.19
2018-09-28T10:07:18.433Z,97450.00
2018-09-28T10:12:12.976Z,97444.29
2018-09-28T10:17:08.207Z,97438.82
2018-09-28T10:22:02.856Z,97427.64
2018-09-28T10:27:10.388Z,97428.74
2018-09-28T10:32:07.321Z,97426.90
2018-09-28T10:37:02.146Z,97424.50
2018-09-28T10:41:57.223Z,97409.36
2018-09-28T10:46:52.121Z,97408.55
2018-09-28T10:51:46.652Z,97412.03
2018-09-28T10:56:43.189Z,97403.52
2018-09-28T11:01:39.133Z,97398.94
2018-09-28T11:06:33.966Z,97403.16
2018-09-28T11:11:28.540Z,97394.34
2018-09-28T11:16:23.187Z,97390.31
2018-09-28T11:21:18.231Z,97385.27
2018-09-28T11:26:12.940Z,97377.20
2018-09-28T11:31:14.713Z,97368.55
2018-09-28T11:36:17.605Z,97359.34
2018-09-28T11:41:13.201Z,97357.13
2018-09-28T11:46:25.895Z,97349.53
2018-09-28T11:51:21.655Z,97335.02
2018-09-28T11:56:16.170Z,97325.80
2018-09-28T12:01:10.669Z,97321.58
2018-09-28T12:06:07.427Z,97304.48
2018-09-28T12:11:02.468Z,97297.22
2018-09-28T12:15:57.333Z,97286.80
2018-09-28T12:20:52.117Z,97281.45
2018-09-28T12:25:53.253Z,97277.02
2018-09-28T12:30:49.102Z,97269.84
2018-09-28T12:35:43.710Z,97258.08
2018-09-28T12:40:41.703Z,97260.92
2018-09-28T12:45:36.549Z,97253.65
2018-09-28T12:50:32.106Z,97245.29
2018-09-28T12:55:28.265Z,97239.46
2018-09-28T13:00:25.194Z,97230.94
2018-09-28T13:05:20.227Z,97220.98
2018-09-28T13:10:14.858Z,97217.86
2018-09-28T13:15:09.624Z,97211.59
2018-09-28T13:20:05.053Z,97206.38
2018-09-28T13:24:59.530Z,97199.75
2018-09-28T13:29:53.968Z,97192.74
2018-09-28T13:34:49.029Z,97194.81
2018-09-28T13:39:44.147Z,97180.57
2018-09-28T13:44:39.514Z,97180.73
2018-09-28T13:49:34.789Z,97173.73
2018-09-28T13:54:30.542Z,97171.95
2018-09-28T13:59:25.881Z,97171.04
2018-09-28T14:04:20.528Z,97168.16
2018-09-28T14:09:15.192Z,97179.75
2018-09-28T14:14:09.724Z,97162.29
2018-09-28T14:19:05.026Z,97160.55
2018-09-28T14:24:00.921Z,97158.19
2018-09-28T14:28:56.622Z,97151.15
2018-09-28T14:33:54.872Z,97154.15
2018-09-28T14:38:51.874Z,97147.48
2018-09-28T14:43:48.449Z,97142.70
2018-09-28T14:48:47.172Z,97137.27
2018-09-28T14:53:42.527Z,97139.23
2018-09-28T14:58:38.626Z,97137.75
2018-09-28T15:03:33.572Z,97135.92
2018-09-28T15:08:28.836Z,97139.06
2018-09-28T15:13:24.904Z,97140.13
2018-09-28T15:18:21.454Z,97139.25
2018-09-28T15:23:16.602Z,97134.59
2018-09-28T15:28:11.149Z,97133.20
2018-09-28T15:33:05.595Z,97137.00
2018-09-28T15:38:00.256Z,97130.95
2018-09-28T15:42:54.720Z,97138.20
2018-09-28T15:47:49.456Z,97146.14
2018-09-28T15:52:43.924Z,97146.05
2018-09-28T15:57:38.652Z,97146.72
2018-09-28T16:02:33.125Z,97146.61
2018-09-28T16:07:27.646Z,97153.56
2018-09-28T16:12:22.136Z,97151.00
2018-09-28T16:17:16.625Z,97161.39
2018-09-28T16:22:11.381Z,97161.78
2018-09-28T16:27:06.048Z,97164.64
2018-09-28T16:32:01.207Z,97164.53
2018-09-28T16:36:55.757Z,97163.05
2018-09-28T16:41:50.259Z,97165.73
2018-09-28T16:46:44.882Z,97167.87
2018-09-28T16:51:39.412Z,97173.08
2018-09-28T16:56:33.980Z,97173.89
2018-09-28T17:01:28.618Z,97182.68
2018-09-28T17:06:23.129Z,97186.23
2018-09-28T17:11:17.650Z,97205.30
2018-09-28T17:16:12.129Z,97212.63
2018-09-28T17:21:06.809Z,97224.49
2018-09-28T17:26:02.360Z,97231.47
2018-09-28T17:30:57.113Z,97235.19
2018-09-28T17:35:51.584Z,97235.21
2018-09-28T17:40:46.089Z,97244.00
2018-09-28T17:45:42.081Z,97244.30
2018-09-28T17:50:36.913Z,97255.45
2018-09-28T17:55:31.394Z,97269.80
2018-09-28T18:00:25.949Z,97280.44
2018-09-28T18:05:20.909Z,97283.14
2018-09-28T18:10:15.412Z,97290.87
2018-09-28T18:15:09.961Z,97312.18
2018-09-28T18:20:06.246Z,97325.46
2018-09-28T18:25:00.716Z,97337.95
2018-09-28T18:29:55.508Z,97343.77
2018-09-28T18:34:50.536Z,97357.27
2018-09-28T18:39:45.104Z,97362.57
2018-09-28T18:44:39.593Z,97364.39
2018-09-28T18:49:34.060Z,97368.10
2018-09-28T18:54:28.500Z,97371.23
2018-09-28T18:59:23.328Z,97381.36
2018-09-28T19:04:17.896Z,97391.38
2018-09-28T19:09:13.140Z,97393.23
2018-09-28T19:14:07.870Z,97407.52
2018-09-28T19:19:02.732Z,97400.25
2018-09-28T19:23:57.212Z,97405.00
2018-09-28T19:28:51.756Z,97405.94
2018-09-28T19:33:46.972Z,97424.77
2018-09-28T19:38:41.448Z,97429.33
2018-09-28T19:43:36.005Z,97444.08
2018-09-28T19:48:30.568Z,97450.77
2018-09-28T19:53:25.058Z,97462.11
2018-09-28T19:58:19.626Z,97467.85
2018-09-28T20:03:14.202Z,97468.73
2018-09-28T20:08:09.184Z,97471.36
2018-09-28T20:13:03.693Z,97477.33
2018-09-28T20:17:58.193Z,97485.56
2018-09-28T20:22:52.788Z,97487.62
2018-09-28T20:27:47.363Z,97496.86
2018-09-28T20:32:41.804Z,97504.01
2018-09-28T20:37:36.311Z,97507.70
2018-09-28T20:42:30.939Z,97505.54
2018-09-28T20:47:25.417Z,97510.31
2018-09-28T20:52:19.888Z,97510.56
2018-09-28T20:57:14.352Z,97501.09
2018-09-28T21:02:08.825Z,97499.29
2018-09-28T21:07:03.373Z,97507.41
2018-09-28T21:11:57.871Z,97505.09
2018-09-28T21:16:52.436Z,97515.39
2018-09-28T21:21:46.908Z,97522.13
2018-09-28T21:26:41.938Z,97528.77
2018-09-28T21:31:36.459Z,97539.60
2018-09-28T21:36:31.019Z,97532.85
2018-09-28T21:41:25.579Z,97538.87
2018-09-28T21:46:20.896Z,97547.89
2018-09-28T21:51:15.582Z,97554.41
2018-09-28T21:56:10.180Z,97557.20
2018-09-28T22:01:04.919Z,97559.85
2018-09-28T22:05:59.518Z,97563.63
2018-09-28T22:10:54.360Z,97578.71
2018-09-28T22:15:49.005Z,97569.25
2018-09-28T22:20:43.516Z,97578.59
2018-09-28T22:25:37.984Z,97580.28
2018-09-28T22:30:32.601Z,97580.58
2018-09-28T22:35:27.563Z,97594.73
2018-09-28T22:40:22.148Z,97582.62
2018-09-28T22:45:16.748Z,97583.84
2018-09-28T22:50:11.317Z,97579.25
2018-09-28T22:55:06.189Z,97579.45
2018-09-28T23:00:00.716Z,97585.19
2018-09-28T23:04:55.376Z,97576.88
2018-09-28T23:09:50.025Z,97585.13
2018-09-28T23:14:44.548Z,97578.52
2018-09-28T23:19:39.044Z,97579.84
2018-09-28T23:24:33.577Z,97604.80
2018-09-28T23:29:28.041Z,97595.30
2018-09-28T23:34:22.673Z,97602.09
2018-09-28T23:39:17.216Z,97603.11
2018-09-28T23:44:11.696Z,97607.51
2018-09-28T23:49:06.403Z,97613.23
2018-09-28T23:54:01.000Z,97613.92
2018-09-28T23:58:55.495Z,97638.33
